Time;durP1;ratioP1;P1;durP2;ratioP2;P2;SDS_P1;SDS_P2;PMS_P1;PMS_P2;Temp;Humidity;BMP_temperature;BMP_pressure;BME280_temperature;BME280_humidity;BME280_pressure;Samples;Min_cycle;Max_cycle;Signal;HPM_P1;HPM_P2
2024/04/02 00:02:02;;;;;;;1.67;1.00;;;13.80;62.90;;;;;;5029364;28;20168;-56
2024/04/02 00:04:47;;;;;;;1.63;0.60;;;13.70;62.80;;;;;;5037051;28;20052;-56
2024/04/02 00:07:31;;;;;;;1.73;0.50;;;13.70;62.80;;;;;;5037066;28;20506;-56
2024/04/02 00:10:17;;;;;;;2.35;0.90;;;13.70;62.90;;;;;;5070621;28;20070;-56
2024/04/02 00:13:02;;;;;;;1.50;0.43;;;13.70;63.00;;;;;;5051724;28;20040;-57
2024/04/02 00:15:48;;;;;;;1.33;0.40;;;13.60;62.80;;;;;;5035152;28;20110;-57
2024/04/02 00:18:33;;;;;;;1.55;0.30;;;13.60;62.80;;;;;;5024784;28;20040;-56
2024/04/02 00:21:17;;;;;;;1.65;0.55;;;13.60;62.90;;;;;;5049941;28;20043;-57
2024/04/02 00:24:02;;;;;;;1.88;0.68;;;13.60;63.00;;;;;;5035488;28;20048;-57
2024/04/02 00:26:47;;;;;;;2.05;0.60;;;13.60;63.00;;;;;;5042667;28;20039;-59
2024/04/02 00:29:32;;;;;;;1.23;0.60;;;13.50;62.90;;;;;;5028429;28;20051;-56
2024/04/02 00:32:17;;;;;;;1.70;0.40;;;13.60;63.10;;;;;;5061934;28;20047;-57
2024/04/02 00:35:01;;;;;;;1.52;0.38;;;13.50;63.00;;;;;;5046550;28;20406;-56
2024/04/02 00:37:53;;;;;;;3.38;0.88;;;13.50;63.00;;;;;;5038182;28;20055;-56
2024/04/02 00:40:41;;;;;;;1.55;0.45;;;13.40;62.80;;;;;;5060083;28;20070;-58
2024/04/02 00:43:27;;;;;;;1.73;0.40;;;13.40;62.90;;;;;;5041976;28;20570;-56
2024/04/02 00:46:12;;;;;;;2.10;0.80;;;13.40;62.90;;;;;;5035415;28;20075;-56
2024/04/02 00:48:56;;;;;;;1.02;0.35;;;13.40;63.00;;;;;;5033463;28;20134;-55
2024/04/02 00:51:41;;;;;;;1.63;0.63;;;13.40;63.00;;;;;;5041391;28;20043;-56
2024/04/02 00:54:26;;;;;;;0.80;0.32;;;13.40;63.10;;;;;;5052435;28;20031;-57
2024/04/02 00:57:10;;;;;;;1.20;0.52;;;13.30;63.00;;;;;;5035664;28;20047;-57
2024/04/02 00:59:54;;;;;;;2.05;0.60;;;13.30;63.00;;;;;;5060157;28;20633;-57
2024/04/02 01:02:39;;;;;;;3.22;0.60;;;13.20;62.90;;;;;;5043786;28;20518;-56
2024/04/02 01:05:26;;;;;;;1.90;0.90;;;13.20;63.00;;;;;;5044767;28;20039;-57
2024/04/02 01:08:11;;;;;;;2.63;0.40;;;13.20;63.00;;;;;;5048249;28;20067;-56
2024/04/02 01:11:05;;;;;;;1.58;0.57;;;13.20;63.10;;;;;;5045889;28;20561;-57
2024/04/02 01:13:51;;;;;;;1.23;0.30;;;13.10;63.00;;;;;;5044287;28;20113;-57
2024/04/02 01:16:43;;;;;;;1.15;0.45;;;13.10;63.00;;;;;;5038878;28;20489;-57
2024/04/02 01:19:28;;;;;;;0.40;0.40;;;13.10;63.00;;;;;;5034254;28;20040;-57
2024/04/02 01:22:13;;;;;;;0.80;0.50;;;13.10;63.10;;;;;;5043663;28;20482;-56
2024/04/02 01:25:01;;;;;;;0.98;0.45;;;13.10;63.20;;;;;;5043340;28;20064;-56
2024/04/02 01:27:46;;;;;;;0.50;0.50;;;13.00;63.00;;;;;;5024517;28;20460;-57
2024/04/02 01:30:31;;;;;;;1.00;0.43;;;13.00;63.10;;;;;;5033247;28;20601;-55
2024/04/02 01:33:16;;;;;;;0.40;0.40;;;13.00;63.20;;;;;;5048198;28;20067;-55
2024/04/02 01:36:01;;;;;;;1.25;0.30;;;13.00;63.20;;;;;;5038917;28;20434;-55
2024/04/02 01:38:45;;;;;;;1.58;0.47;;;12.90;63.10;;;;;;5032534;28;20028;-55
2024/04/02 01:41:30;;;;;;;0.70;0.50;;;12.90;63.20;;;;;;5041621;28;20124;-55
2024/04/02 01:44:14;;;;;;;0.38;0.30;;;12.90;63.30;;;;;;5047222;28;20506;-56
2024/04/02 01:47:00;;;;;;;0.60;0.30;;;12.90;63.30;;;;;;5071445;28;20051;-56
2024/04/02 01:49:44;;;;;;;0.20;0.20;;;12.90;63.30;;;;;;5048476;28;20047;-54
2024/04/02 01:52:29;;;;;;;1.10;0.47;;;12.90;63.40;;;;;;5020952;28;20044;-54
2024/04/02 01:55:14;;;;;;;1.33;0.40;;;12.90;63.40;;;;;;5040745;28;20094;-55
2024/04/02 01:57:59;;;;;;;0.77;0.40;;;12.80;63.20;;;;;;5034181;28;20044;-54
2024/04/02 02:00:45;;;;;;;0.80;0.40;;;12.80;63.30;;;;;;5036554;28;20057;-56
2024/04/02 02:03:29;;;;;;;1.38;1.02;;;12.80;63.40;;;;;;5046990;28;20079;-55
2024/04/02 02:06:14;;;;;;;0.30;0.30;;;12.80;63.60;;;;;;5051675;28;20082;-54
2024/04/02 02:08:58;;;;;;;1.75;0.43;;;12.80;63.40;;;;;;5035483;28;20047;-54
2024/04/02 02:11:43;;;;;;;0.95;0.68;;;12.70;63.30;;;;;;5051630;28;20086;-55
2024/04/02 02:14:28;;;;;;;1.70;0.50;;;12.70;63.30;;;;;;5033346;28;20580;-54
2024/04/02 02:17:12;;;;;;;1.58;0.73;;;12.70;63.30;;;;;;5032807;28;20040;-56
2024/04/02 02:19:57;;;;;;;1.15;0.55;;;12.70;63.30;;;;;;5075435;28;20099;-55
2024/04/02 02:22:41;;;;;;;1.27;0.50;;;12.70;63.30;;;;;;5042732;28;20125;-54
2024/04/02 02:25:27;;;;;;;1.05;0.50;;;12.70;63.40;;;;;;5041023;28;20036;-55
2024/04/02 02:28:12;;;;;;;0.85;0.60;;;12.70;63.40;;;;;;5038809;28;20137;-54
2024/04/02 02:30:57;;;;;;;1.45;0.50;;;12.70;63.50;;;;;;5066640;28;20119;-58
2024/04/02 02:33:41;;;;;;;1.27;0.47;;;12.60;63.30;;;;;;5043191;28;20121;-56
2024/04/02 02:36:26;;;;;;;4.82;0.70;;;12.60;63.90;;;;;;5034245;28;20062;-55
2024/04/02 02:39:11;;;;;;;0.93;0.50;;;12.60;63.40;;;;;;5042721;28;20656;-55
2024/04/02 02:41:56;;;;;;;1.30;0.60;;;12.60;63.50;;;;;;5034595;28;20098;-54
2024/04/02 02:44:41;;;;;;;1.27;0.60;;;12.50;63.30;;;;;;5055239;28;20106;-54
2024/04/02 02:47:25;;;;;;;1.35;0.60;;;12.60;63.50;;;;;;5042123;28;20040;-54
2024/04/02 02:50:10;;;;;;;0.70;0.50;;;12.60;63.60;;;;;;5041948;28;20521;-55
2024/04/02 02:52:56;;;;;;;0.85;0.50;;;12.50;63.40;;;;;;5030179;28;20152;-56
2024/04/02 02:55:41;;;;;;;1.55;0.63;;;12.50;63.50;;;;;;5031812;28;20047;-55
2024/04/02 02:58:26;;;;;;;0.93;0.43;;;12.50;63.50;;;;;;5035359;28;20066;-55
2024/04/02 03:01:10;;;;;;;0.82;0.50;;;12.50;63.50;;;;;;5046529;28;20047;-56
2024/04/02 03:03:55;;;;;;;1.83;0.60;;;12.50;63.60;;;;;;5043408;28;20128;-54
2024/04/02 03:06:40;;;;;;;1.08;0.50;;;12.50;63.60;;;;;;5035177;28;20392;-57
2024/04/02 03:09:25;;;;;;;2.00;0.70;;;12.50;63.60;;;;;;5026935;28;20155;-57
2024/04/02 03:12:09;;;;;;;0.68;0.40;;;12.40;63.60;;;;;;5036526;28;20156;-54
2024/04/02 03:14:54;;;;;;;1.60;0.60;;;12.50;63.70;;;;;;5040537;28;20371;-56
2024/04/02 03:17:39;;;;;;;2.22;0.80;;;12.40;63.50;;;;;;5035668;28;20113;-59
2024/04/02 03:20:23;;;;;;;1.60;0.60;;;12.40;63.60;;;;;;5050541;28;20209;-58
2024/04/02 03:23:10;;;;;;;1.98;0.50;;;12.40;63.60;;;;;;5041647;28;20764;-54
2024/04/02 03:25:56;;;;;;;1.95;0.60;;;12.40;63.60;;;;;;5042247;28;20052;-55
2024/04/02 03:28:41;;;;;;;1.50;0.75;;;12.40;63.60;;;;;;5031028;28;20813;-55
2024/04/02 03:31:25;;;;;;;1.40;0.70;;;12.40;63.70;;;;;;5033571;28;20364;-54
2024/04/02 03:34:09;;;;;;;0.70;0.60;;;12.30;63.60;;;;;;5031745;28;20507;-56
2024/04/02 03:36:55;;;;;;;0.70;0.60;;;12.30;63.60;;;;;;5040924;28;20099;-55
2024/04/02 03:39:40;;;;;;;1.33;0.60;;;12.30;63.60;;;;;;5030522;28;20055;-55
2024/04/02 03:42:24;;;;;;;1.35;0.70;;;12.30;63.60;;;;;;5044283;28;20036;-53
2024/04/02 03:45:09;;;;;;;1.10;0.60;;;12.30;63.70;;;;;;5034929;28;20495;-55
2024/04/02 03:47:53;;;;;;;1.75;0.70;;;12.30;63.70;;;;;;5029635;28;20047;-56
2024/04/02 03:50:39;;;;;;;1.60;0.77;;;12.30;63.80;;;;;;5046832;28;20305;-55
2024/04/02 03:53:24;;;;;;;0.80;0.63;;;12.30;63.80;;;;;;5039630;28;20449;-57
2024/04/02 03:56:09;;;;;;;0.85;0.60;;;12.30;63.80;;;;;;5037263;28;20040;-54
2024/04/02 03:58:53;;;;;;;2.50;0.80;;;12.20;63.70;;;;;;5030551;28;20044;-55
2024/04/02 04:01:38;;;;;;;2.40;0.70;;;12.20;63.70;;;;;;5034743;28;20117;-54
2024/04/02 04:04:23;;;;;;;2.13;0.52;;;12.20;63.70;;;;;;5029330;28;20044;-52
2024/04/02 04:07:07;;;;;;;0.82;0.70;;;12.20;63.80;;;;;;5064207;28;20071;-55
2024/04/02 04:09:52;;;;;;;0.60;0.50;;;12.20;63.80;;;;;;5046007;28;20340;-55
2024/04/02 04:12:37;;;;;;;1.77;0.80;;;12.20;63.80;;;;;;5046438;28;20036;-56
2024/04/02 04:15:21;;;;;;;3.45;0.80;;;12.10;63.70;;;;;;5039992;28;20044;-55
2024/04/02 04:18:06;;;;;;;1.60;0.70;;;12.20;63.90;;;;;;5034882;28;20060;-54
2024/04/02 04:21:11;;;;;;;1.23;0.70;;;12.20;63.90;;;;;;5050224;28;20168;-55
2024/04/02 04:23:55;;;;;;;1.65;0.73;;;12.10;63.90;;;;;;5038971;28;20145;-57
2024/04/02 04:26:40;;;;;;;1.00;0.75;;;12.20;64.10;;;;;;5031462;28;20051;-52
2024/04/02 04:29:25;;;;;;;1.55;0.70;;;12.10;63.90;;;;;;5041797;28;20137;-54
2024/04/02 04:32:12;;;;;;;0.80;0.80;;;12.10;63.90;;;;;;5048245;28;20394;-55
2024/04/02 04:34:58;;;;;;;1.20;0.80;;;12.10;64.00;;;;;;5045562;28;20083;-58
2024/04/02 04:37:43;;;;;;;1.88;0.70;;;12.10;64.10;;;;;;5026620;28;20072;-54
2024/04/02 04:40:31;;;;;;;1.10;0.75;;;12.00;63.90;;;;;;5073976;28;20035;-56
2024/04/02 04:43:17;;;;;;;1.05;0.90;;;12.00;64.00;;;;;;5055197;28;20067;-52
2024/04/02 04:46:03;;;;;;;1.13;0.80;;;12.00;64.10;;;;;;5039780;28;20043;-57
2024/04/02 04:48:48;;;;;;;0.70;0.63;;;12.00;64.10;;;;;;5042731;28;20092;-53
2024/04/02 04:51:33;;;;;;;1.05;0.77;;;12.00;64.10;;;;;;5046972;28;20039;-56
2024/04/02 04:54:18;;;;;;;1.15;0.80;;;12.00;64.20;;;;;;5047748;28;20125;-56
2024/04/02 04:57:03;;;;;;;1.23;0.82;;;12.00;64.20;;;;;;5037834;28;20052;-54
2024/04/02 04:59:48;;;;;;;1.10;0.63;;;11.90;64.20;;;;;;5003223;28;1341481;-53
2024/04/02 05:02:32;;;;;;;0.82;0.70;;;11.90;64.20;;;;;;5040105;28;20041;-56
2024/04/02 05:05:17;;;;;;;0.70;0.57;;;11.90;64.30;;;;;;5038737;28;20066;-53
2024/04/02 05:08:21;;;;;;;1.17;0.70;;;11.90;64.40;;;;;;5040441;28;20048;-53
2024/04/02 05:11:07;;;;;;;1.75;0.95;;;11.90;64.50;;;;;;5038388;28;20582;-57
2024/04/02 05:13:51;;;;;;;0.90;0.70;;;11.90;64.40;;;;;;5045650;28;20121;-54
2024/04/02 05:16:37;;;;;;;1.00;0.90;;;11.90;64.50;;;;;;5038502;28;20044;-52
2024/04/02 05:19:22;;;;;;;1.95;0.90;;;11.90;64.60;;;;;;5034531;28;20663;-52
2024/04/02 05:22:08;;;;;;;1.65;0.80;;;11.90;64.70;;;;;;5035925;28;20632;-53
2024/04/02 05:24:53;;;;;;;1.65;1.00;;;11.90;64.70;;;;;;5027911;28;20040;-54
2024/04/02 05:27:37;;;;;;;2.50;1.00;;;11.90;64.70;;;;;;5036825;28;20106;-56
2024/04/02 05:30:22;;;;;;;1.00;0.80;;;11.90;64.70;;;;;;5030432;28;20095;-56
2024/04/02 05:33:06;;;;;;;1.15;0.73;;;11.90;64.80;;;;;;5036339;28;20354;-53
2024/04/02 05:35:51;;;;;;;2.85;1.10;;;11.90;64.90;;;;;;5057494;28;20403;-54
2024/04/02 05:38:36;;;;;;;0.80;0.70;;;11.90;64.90;;;;;;5042450;28;20032;-54
2024/04/02 05:41:21;;;;;;;1.92;0.95;;;12.00;65.20;;;;;;5040541;28;20040;-55
2024/04/02 05:44:06;;;;;;;2.78;1.00;;;12.00;65.20;;;;;;5025248;28;20040;-57
2024/04/02 05:46:51;;;;;;;2.40;1.17;;;12.00;65.20;;;;;;5044976;28;20075;-54
2024/04/02 05:49:36;;;;;;;1.70;0.85;;;12.00;65.30;;;;;;5031019;28;20350;-52
2024/04/02 05:52:21;;;;;;;1.27;0.98;;;12.00;65.30;;;;;;5042471;28;20043;-55
2024/04/02 05:55:05;;;;;;;1.70;1.00;;;12.00;65.40;;;;;;5037158;28;20185;-56
2024/04/02 05:57:51;;;;;;;2.50;1.02;;;12.00;65.50;;;;;;5028689;28;20041;-50
2024/04/02 06:00:36;;;;;;;2.63;1.10;;;12.10;65.70;;;;;;5045960;28;20052;-53
2024/04/02 06:03:20;;;;;;;1.50;0.80;;;12.10;66.00;;;;;;5036099;28;20043;-53
2024/04/02 06:06:05;;;;;;;2.72;0.93;;;12.20;66.90;;;;;;5038830;28;20059;-51
2024/04/02 06:08:50;;;;;;;2.72;1.00;;;12.20;66.40;;;;;;5036201;28;20035;-54
2024/04/02 06:11:35;;;;;;;2.33;1.05;;;12.30;66.50;;;;;;5039345;28;20148;-53
2024/04/02 06:14:19;;;;;;;2.70;1.20;;;12.40;66.70;;;;;;5035737;28;20532;-52
2024/04/02 06:17:04;;;;;;;6.00;3.50;;;12.40;66.80;;;;;;5031131;28;20408;-54
2024/04/02 06:19:49;;;;;;;8.80;4.57;;;12.40;66.90;;;;;;5024162;28;20102;-56
2024/04/02 06:22:35;;;;;;;5.93;4.03;;;12.40;67.00;;;;;;5031942;28;20043;-55
2024/04/02 06:25:20;;;;;;;6.97;4.03;;;12.50;67.30;;;;;;5032662;28;20187;-54
2024/04/02 06:28:05;;;;;;;10.98;4.43;;;12.60;67.50;;;;;;5042777;28;20039;-52
2024/04/02 06:30:49;;;;;;;5.82;2.97;;;12.50;67.40;;;;;;5031326;28;20135;-56
2024/04/02 06:33:34;;;;;;;6.40;2.97;;;12.60;67.60;;;;;;5036927;28;20059;-53
2024/04/02 06:36:19;;;;;;;5.38;2.75;;;12.70;67.70;;;;;;5042460;28;20370;-56
2024/04/02 06:39:04;;;;;;;4.80;2.67;;;12.70;67.80;;;;;;5062119;28;20295;-54
2024/04/02 06:41:49;;;;;;;4.00;2.33;;;12.70;67.70;;;;;;5031414;28;20099;-51
2024/04/02 06:44:34;;;;;;;3.13;2.20;;;12.80;67.90;;;;;;5026369;28;20620;-54
2024/04/02 06:47:19;;;;;;;4.07;2.40;;;12.80;67.90;;;;;;5043175;28;20031;-53
2024/04/02 06:50:05;;;;;;;3.75;2.45;;;12.90;68.00;;;;;;5040659;28;20217;-54
2024/04/02 06:52:54;;;;;;;6.72;2.60;;;12.90;68.00;;;;;;5029636;28;20116;-54
2024/04/02 06:55:40;;;;;;;4.32;2.22;;;13.00;68.20;;;;;;5033797;28;20028;-56
2024/04/02 06:58:25;;;;;;;5.05;3.25;;;13.10;68.30;;;;;;5032529;28;20044;-53
2024/04/02 07:01:09;;;;;;;4.75;1.77;;;13.10;68.20;;;;;;5037865;28;20102;-54
2024/04/02 07:03:54;;;;;;;4.00;1.92;;;13.20;68.20;;;;;;5037983;28;20391;-56
2024/04/02 07:06:38;;;;;;;2.75;1.60;;;13.20;68.10;;;;;;5053883;28;20035;-55
2024/04/02 07:09:26;;;;;;;2.22;1.80;;;13.30;68.20;;;;;;5039668;28;20040;-56
2024/04/02 07:12:11;;;;;;;3.95;2.10;;;13.40;68.20;;;;;;5066874;27;20152;-55
2024/04/02 07:14:55;;;;;;;5.50;2.00;;;13.50;68.20;;;;;;5034064;28;20043;-55
2024/04/02 07:17:40;;;;;;;5.72;1.70;;;13.50;68.10;;;;;;5029159;28;20094;-55
2024/04/02 07:20:24;;;;;;;2.92;1.60;;;13.60;68.10;;;;;;5025400;28;20040;-54
2024/04/02 07:23:09;;;;;;;2.95;1.58;;;13.70;68.20;;;;;;5038969;28;20502;-55
2024/04/02 07:25:54;;;;;;;3.05;1.95;;;13.70;68.10;;;;;;5038235;28;20586;-54
2024/04/02 07:28:42;;;;;;;2.65;1.70;;;13.80;68.10;;;;;;5026747;28;20039;-54
2024/04/02 07:31:28;;;;;;;2.80;1.42;;;13.80;68.00;;;;;;5043768;28;20040;-54
2024/04/02 07:34:14;;;;;;;3.45;1.48;;;13.90;68.00;;;;;;5031897;28;20357;-53
2024/04/02 07:36:58;;;;;;;2.67;1.25;;;13.90;68.00;;;;;;5032880;28;20757;-53
2024/04/02 07:39:43;;;;;;;1.90;1.30;;;14.00;68.00;;;;;;5038669;28;20067;-54
2024/04/02 07:42:27;;;;;;;1.73;1.20;;;14.10;68.00;;;;;;5042919;28;20561;-53
2024/04/02 07:45:15;;;;;;;2.05;1.42;;;14.10;67.90;;;;;;5033408;28;20466;-55
2024/04/02 07:47:59;;;;;;;4.05;1.70;;;14.20;68.00;;;;;;5029039;28;20040;-54
2024/04/02 07:50:44;;;;;;;1.70;1.20;;;14.30;68.00;;;;;;5040613;28;20090;-52
2024/04/02 07:53:29;;;;;;;2.25;1.20;;;14.30;67.90;;;;;;5032598;28;20036;-52
2024/04/02 07:56:13;;;;;;;4.60;2.30;;;14.40;68.10;;;;;;5068015;28;20067;-53
2024/04/02 07:58:58;;;;;;;4.43;1.42;;;14.40;67.90;;;;;;5034855;28;20103;-52
2024/04/02 08:01:42;;;;;;;2.10;1.30;;;14.50;68.00;;;;;;5037739;28;20115;-52
2024/04/02 08:04:27;;;;;;;3.30;1.42;;;14.60;68.00;;;;;;5029987;28;20110;-56
2024/04/02 08:07:16;;;;;;;1.98;0.98;;;14.70;68.00;;;;;;5031775;28;20062;-54
2024/04/02 08:10:00;;;;;;;2.25;1.00;;;14.80;68.00;;;;;;5060872;28;20622;-56
2024/04/02 08:12:45;;;;;;;2.97;1.00;;;15.00;68.10;;;;;;5039828;28;20163;-53
2024/04/02 08:15:30;;;;;;;4.78;1.25;;;15.10;68.00;;;;;;5037213;28;20505;-55
2024/04/02 08:18:15;;;;;;;1.67;1.10;;;15.10;67.80;;;;;;5038385;28;20075;-55
2024/04/02 08:20:59;;;;;;;2.03;0.90;;;15.20;67.80;;;;;;5037514;28;20048;-56
2024/04/02 08:23:44;;;;;;;2.63;1.00;;;15.30;67.90;;;;;;5038994;28;20076;-51
2024/04/02 08:26:28;;;;;;;3.42;0.98;;;15.30;67.70;;;;;;5024184;28;20662;-54
2024/04/02 08:29:14;;;;;;;3.33;1.33;;;15.30;67.70;;;;;;5043825;28;20106;-52
2024/04/02 08:31:59;;;;;;;5.20;1.77;;;15.30;67.50;;;;;;5050021;28;20091;-55
2024/04/02 08:34:43;;;;;;;2.53;1.05;;;15.40;67.60;;;;;;5038869;28;20039;-56
2024/04/02 08:37:28;;;;;;;3.65;1.30;;;15.50;67.70;;;;;;5026983;28;20115;-54
2024/04/02 08:40:13;;;;;;;2.55;0.93;;;15.60;67.70;;;;;;5049311;28;20051;-53
2024/04/02 08:43:06;;;;;;;1.45;0.80;;;15.70;67.70;;;;;;5037476;28;20509;-54
2024/04/02 08:45:52;;;;;;;2.20;1.00;;;15.90;67.60;;;;;;5036373;28;20094;-54
2024/04/02 08:48:36;;;;;;;1.52;1.20;;;16.00;67.50;;;;;;5034513;28;20068;-54
2024/04/02 08:51:21;;;;;;;2.28;0.90;;;16.10;67.40;;;;;;5060456;28;20044;-55
2024/04/02 08:54:05;;;;;;;2.33;0.98;;;16.20;67.40;;;;;;5038856;28;20525;-52
2024/04/02 08:56:55;;;;;;;1.88;0.70;;;16.20;67.20;;;;;;5039608;28;20052;-55
2024/04/02 08:59:42;;;;;;;3.72;1.65;;;16.20;67.00;;;;;;5037167;28;20051;-56
2024/04/02 09:02:29;;;;;;;2.08;1.02;;;16.20;66.90;;;;;;5037048;28;20113;-56
2024/04/02 09:05:14;;;;;;;5.80;1.58;;;16.20;66.90;;;;;;5042073;28;20106;-56
2024/04/02 09:07:59;;;;;;;3.40;0.82;;;16.30;67.30;;;;;;5058462;28;20052;-56
2024/04/02 09:10:43;;;;;;;3.40;0.75;;;16.60;67.60;;;;;;5057620;28;20547;-51
2024/04/02 09:13:28;;;;;;;2.38;0.47;;;16.80;67.50;;;;;;5040956;28;20645;-57
2024/04/02 09:16:13;;;;;;;2.70;0.98;;;17.10;67.50;;;;;;5042659;28;20048;-53
2024/04/02 09:19:00;;;;;;;1.42;0.57;;;17.40;67.40;;;;;;5043477;28;20058;-55
2024/04/02 09:21:45;;;;;;;2.25;0.80;;;17.70;67.80;;;;;;5056823;28;20199;-54
2024/04/02 09:24:30;;;;;;;3.00;0.65;;;17.90;66.90;;;;;;5032505;28;20052;-57
2024/04/02 09:27:16;;;;;;;2.85;0.80;;;18.10;66.60;;;;;;5044513;28;20666;-57
2024/04/02 09:30:01;;;;;;;2.70;1.00;;;18.20;66.30;;;;;;5043544;28;20039;-55
2024/04/02 09:32:46;;;;;;;2.75;0.82;;;18.30;66.20;;;;;;5039372;28;20145;-56
2024/04/02 09:35:43;;;;;;;0.80;0.70;;;18.40;66.10;;;;;;5044647;28;20043;-55
2024/04/02 09:38:29;;;;;;;3.47;1.25;;;18.50;65.80;;;;;;5038216;28;20036;-55
2024/04/02 09:41:14;;;;;;;1.33;0.73;;;18.70;65.90;;;;;;5035795;28;20118;-55
2024/04/02 09:44:01;;;;;;;1.95;0.50;;;18.90;65.80;;;;;;5033636;28;20080;-56
2024/04/02 09:46:47;;;;;;;2.72;0.75;;;19.10;65.60;;;;;;5045112;28;20087;-55
2024/04/02 09:49:33;;;;;;;1.88;0.63;;;19.30;65.40;;;;;;5038533;28;20285;-55
2024/04/02 09:52:23;;;;;;;1.80;0.70;;;19.50;65.20;;;;;;5027922;28;20149;-57
2024/04/02 09:55:08;;;;;;;2.45;0.73;;;19.70;65.00;;;;;;5050102;28;20047;-56
2024/04/02 09:57:54;;;;;;;2.50;0.90;;;19.90;64.70;;;;;;5035959;28;20523;-56
2024/04/02 10:00:43;;;;;;;2.20;0.60;;;20.10;64.50;;;;;;5042633;28;20047;-56
2024/04/02 10:03:31;;;;;;;1.73;0.70;;;20.20;64.20;;;;;;5037571;28;20055;-56
2024/04/02 10:06:16;;;;;;;2.35;0.65;;;20.30;64.10;;;;;;5043106;28;20075;-59
2024/04/02 10:09:06;;;;;;;1.38;0.60;;;20.30;63.70;;;;;;5041805;28;20051;-55
2024/04/02 10:11:51;;;;;;;1.15;0.60;;;20.40;63.60;;;;;;5034616;28;20118;-56
2024/04/02 10:14:37;;;;;;;2.83;0.82;;;20.40;63.40;;;;;;5042999;28;20040;-57
2024/04/02 10:17:21;;;;;;;3.10;1.25;;;20.40;63.10;;;;;;5050277;28;20433;-57
2024/04/02 10:20:31;;;;;;;2.03;0.70;;;20.50;63.10;;;;;;5039940;28;20342;-57
2024/04/02 10:23:18;;;;;;;2.22;0.47;;;20.50;62.80;;;;;;5031350;28;20047;-55
2024/04/02 10:26:06;;;;;;;1.15;0.60;;;20.50;62.80;;;;;;5046063;28;20077;-64
2024/04/02 10:28:54;;;;;;;1.23;0.50;;;20.50;62.50;;;;;;5047079;28;20398;-56
2024/04/02 10:31:43;;;;;;;1.63;0.93;;;20.60;62.40;;;;;;5037952;28;20051;-57
2024/04/02 10:34:29;;;;;;;1.85;1.00;;;20.80;62.30;;;;;;5046882;28;20028;-57
2024/04/02 10:37:14;;;;;;;3.05;1.65;;;20.90;62.20;;;;;;5039716;28;20048;-58
2024/04/02 10:40:01;;;;;;;2.22;0.77;;;21.00;62.00;;;;;;5043562;28;20105;-56
2024/04/02 10:42:48;;;;;;;3.72;1.10;;;21.10;61.80;;;;;;5040809;28;20043;-56
2024/04/02 10:45:34;;;;;;;1.30;0.70;;;21.20;61.60;;;;;;5033831;28;20546;-57
2024/04/02 10:48:19;;;;;;;1.85;1.35;;;21.30;61.40;;;;;;5048973;28;20134;-57
2024/04/02 10:51:04;;;;;;;4.07;2.40;;;21.40;61.30;;;;;;5024092;28;20529;-57
2024/04/02 10:53:49;;;;;;;1.63;1.20;;;21.50;61.20;;;;;;5043033;28;20032;-57
2024/04/02 10:56:34;;;;;;;3.50;1.73;;;21.50;61.00;;;;;;5033838;28;20090;-58
2024/04/02 10:59:19;;;;;;;1.60;1.00;;;21.50;60.80;;;;;;5028460;28;20098;-57
2024/04/02 11:02:19;;;;;;;2.17;1.23;;;21.50;60.70;;;;;;5041959;28;20044;-58
2024/04/02 11:05:06;;;;;;;2.45;1.60;;;21.50;60.50;;;;;;5055452;28;20110;-57
2024/04/02 11:07:51;;;;;;;2.30;0.90;;;21.60;60.60;;;;;;5031704;28;20226;-57
2024/04/02 11:10:35;;;;;;;1.90;0.82;;;21.70;60.60;;;;;;5036125;28;20090;-57
2024/04/02 11:13:27;;;;;;;2.15;0.90;;;21.80;60.40;;;;;;5044394;28;20109;-56
2024/04/02 11:16:11;;;;;;;2.33;1.15;;;21.90;60.30;;;;;;5035664;28;20139;-56
2024/04/02 11:18:56;;;;;;;2.88;0.88;;;22.00;60.20;;;;;;5033200;28;20044;-64
2024/04/02 11:21:41;;;;;;;1.58;0.82;;;22.10;60.00;;;;;;5034519;28;20464;-58
2024/04/02 11:27:32;;;;;;;;;;;22.20;59.60;;;;;;5029399;28;20114;-62
2024/04/02 11:30:20;;;;;;;3.78;0.80;;;22.40;59.90;;;;;;5040685;28;20493;-62
2024/04/02 11:33:04;;;;;;;2.47;0.85;;;22.50;60.00;;;;;;5043812;28;20047;-58
2024/04/02 11:35:53;;;;;;;2.58;0.90;;;22.50;59.60;;;;;;5030503;28;20036;-58
2024/04/02 11:38:38;;;;;;;3.33;0.70;;;22.60;59.30;;;;;;5038315;28;20556;-57
2024/04/02 11:41:24;;;;;;;0.98;0.60;;;22.60;59.10;;;;;;5038283;28;20036;-57
2024/04/02 11:44:10;;;;;;;3.58;0.77;;;22.60;58.90;;;;;;5037228;28;20162;-57
2024/04/02 11:46:55;;;;;;;2.00;0.70;;;22.60;58.80;;;;;;5032036;28;20522;-57
2024/04/02 11:49:43;;;;;;;1.38;0.57;;;22.60;58.70;;;;;;5031463;28;20144;-57
2024/04/02 11:52:29;;;;;;;1.75;0.68;;;22.70;58.60;;;;;;5038940;28;20051;-57
2024/04/02 11:55:14;;;;;;;1.38;0.60;;;22.70;58.50;;;;;;5046220;28;20738;-58
2024/04/02 12:01:06;;;;;;;;;;;22.80;58.10;;;;;;5041782;28;20051;-57
2024/04/02 12:03:51;;;;;;;4.28;0.80;;;22.90;58.30;;;;;;5030251;28;20328;-57
2024/04/02 12:06:36;;;;;;;4.18;0.90;;;22.90;58.40;;;;;;5049649;28;20076;-57
2024/04/02 12:09:21;;;;;;;1.23;0.57;;;23.00;58.20;;;;;;5055240;28;20040;-56
2024/04/02 12:12:06;;;;;;;3.75;0.73;;;23.10;58.10;;;;;;5036550;28;20544;-60
2024/04/02 12:14:53;;;;;;;2.80;1.20;;;23.10;57.80;;;;;;5062255;28;20553;-57
2024/04/02 12:17:37;;;;;;;5.30;0.90;;;23.10;57.70;;;;;;5025560;28;20105;-59
2024/04/02 12:20:22;;;;;;;3.28;0.55;;;23.10;57.60;;;;;;5039277;28;20210;-57
2024/04/02 12:23:10;;;;;;;1.65;0.70;;;23.10;57.50;;;;;;5031026;28;20048;-57
2024/04/02 12:25:54;;;;;;;2.10;0.57;;;23.10;57.40;;;;;;5025490;28;20565;-56
2024/04/02 12:28:39;;;;;;;2.10;0.95;;;23.10;57.30;;;;;;5045486;28;20367;-57
2024/04/02 12:31:24;;;;;;;2.33;1.05;;;23.10;57.20;;;;;;5048327;28;20048;-57
2024/04/02 12:34:09;;;;;;;2.05;0.93;;;23.10;57.10;;;;;;5038413;28;20106;-57
2024/04/02 12:36:54;;;;;;;4.28;1.00;;;23.10;57.10;;;;;;5042711;28;20133;-58
2024/04/02 12:39:40;;;;;;;1.25;0.70;;;23.00;56.90;;;;;;5043524;28;20032;-58
2024/04/02 12:42:24;;;;;;;2.60;1.05;;;22.90;56.80;;;;;;5046845;28;20043;-57
2024/04/02 12:45:09;;;;;;;2.03;0.68;;;22.90;56.80;;;;;;5032142;28;20083;-59
2024/04/02 12:47:54;;;;;;;0.93;0.85;;;22.80;56.70;;;;;;5041697;28;20385;-57
2024/04/02 12:50:48;;;;;;;1.40;0.60;;;22.70;56.60;;;;;;5031333;28;20094;-57
2024/04/02 12:53:33;;;;;;;2.58;0.80;;;22.60;56.60;;;;;;5048621;28;20040;-57
2024/04/02 12:56:18;;;;;;;1.58;0.70;;;22.60;56.70;;;;;;5062639;28;20122;-56
2024/04/02 12:59:02;;;;;;;2.50;0.63;;;22.60;56.70;;;;;;5042881;28;20126;-57
2024/04/02 13:01:47;;;;;;;1.52;0.63;;;22.60;56.60;;;;;;5035030;28;20072;-57
2024/04/02 13:04:32;;;;;;;3.50;1.10;;;22.70;56.60;;;;;;5054357;28;20071;-57
2024/04/02 13:07:17;;;;;;;2.47;0.63;;;22.80;56.60;;;;;;5054921;28;20055;-59
2024/04/02 13:10:05;;;;;;;0.95;0.52;;;22.90;56.70;;;;;;5040321;28;20039;-57
2024/04/02 13:12:50;;;;;;;2.28;0.88;;;22.90;56.40;;;;;;5070691;28;20120;-56
2024/04/02 13:15:36;;;;;;;1.85;0.70;;;22.90;56.40;;;;;;5036438;28;20079;-56
2024/04/02 13:18:21;;;;;;;0.93;0.68;;;23.00;56.50;;;;;;5038155;28;20407;-55
2024/04/02 13:21:06;;;;;;;2.42;0.50;;;22.90;56.30;;;;;;5043079;28;20072;-57
2024/04/02 13:23:51;;;;;;;1.70;0.77;;;22.90;56.30;;;;;;5041352;28;20411;-59
2024/04/02 13:26:36;;;;;;;2.17;0.70;;;22.80;56.20;;;;;;5056021;28;20051;-57
2024/04/02 13:29:22;;;;;;;1.15;0.60;;;22.70;56.00;;;;;;5038795;28;20123;-56
2024/04/02 13:32:07;;;;;;;1.13;0.50;;;22.60;56.00;;;;;;5038396;28;20521;-57
2024/04/02 13:34:52;;;;;;;1.42;0.75;;;22.60;56.10;;;;;;5037143;28;20078;-57
2024/04/02 13:37:37;;;;;;;1.55;0.88;;;22.50;56.10;;;;;;5043276;28;20279;-57
2024/04/02 13:40:21;;;;;;;2.05;0.80;;;22.40;56.00;;;;;;5044367;28;20369;-56
2024/04/02 13:43:06;;;;;;;1.55;0.60;;;22.40;56.00;;;;;;5058747;28;20063;-57
2024/04/02 13:46:00;;;;;;;3.40;0.75;;;22.40;56.10;;;;;;5041839;28;20663;-59
2024/04/02 13:48:45;;;;;;;1.77;0.93;;;22.30;55.80;;;;;;5049573;28;20044;-57
2024/04/02 13:51:30;;;;;;;1.77;0.77;;;22.30;55.90;;;;;;5046507;28;20121;-57
2024/04/02 13:54:14;;;;;;;2.78;0.65;;;22.30;55.90;;;;;;5041528;28;20047;-55
2024/04/02 13:56:59;;;;;;;2.42;0.63;;;22.30;55.90;;;;;;5054696;28;20367;-57
2024/04/02 13:59:44;;;;;;;2.50;0.70;;;22.30;55.90;;;;;;5037725;28;20087;-57
2024/04/02 14:02:29;;;;;;;3.50;0.93;;;22.30;55.80;;;;;;5036772;28;20048;-57
2024/04/02 14:05:14;;;;;;;1.48;0.55;;;22.30;55.90;;;;;;5022595;28;20091;-59
2024/04/02 14:07:59;;;;;;;1.90;0.60;;;22.20;55.70;;;;;;5047669;28;20067;-56
2024/04/02 14:10:43;;;;;;;1.35;1.00;;;22.20;55.70;;;;;;5030537;28;20049;-57
2024/04/02 14:13:30;;;;;;;2.67;1.05;;;22.20;56.40;;;;;;5028003;28;20035;-57
2024/04/02 14:16:15;;;;;;;2.20;0.80;;;22.20;55.90;;;;;;5043528;28;20116;-56
2024/04/02 14:19:02;;;;;;;3.90;1.10;;;22.10;55.80;;;;;;5034903;28;20087;-57
2024/04/02 14:21:50;;;;;;;2.38;0.60;;;22.10;55.80;;;;;;5033104;28;20083;-57
2024/04/02 14:24:34;;;;;;;2.80;0.82;;;22.00;55.70;;;;;;5062098;28;20044;-57
2024/04/02 14:27:19;;;;;;;3.83;0.98;;;22.00;55.80;;;;;;5047550;28;20035;-57
2024/04/02 14:30:04;;;;;;;2.05;1.13;;;21.90;55.70;;;;;;5039944;28;20051;-58